createdAt,value
2019-03-26T00:01:48.351Z,4.10
2019-03-26T00:04:20.014Z,3.67
2019-03-26T00:06:52.207Z,3.80
2019-03-26T00:09:23.969Z,4.00
2019-03-26T00:11:55.886Z,3.40
2019-03-26T00:14:27.496Z,3.30
2019-03-26T00:16:59.230Z,3.83
2019-03-26T00:19:30.893Z,3.90
2019-03-26T00:22:02.714Z,3.50
2019-03-26T00:24:34.305Z,4.13
2019-03-26T00:27:07.794Z,3.40
2019-03-26T00:29:39.756Z,3.23
2019-03-26T00:32:11.696Z,3.40
2019-03-26T00:34:43.301Z,3.50
2019-03-26T00:37:15.114Z,3.57
2019-03-26T00:39:46.699Z,3.20
2019-03-26T00:42:18.739Z,3.33
2019-03-26T00:44:50.414Z,3.63
2019-03-26T00:47:22.253Z,3.37
2019-03-26T00:49:53.898Z,4.00
2019-03-26T00:52:25.775Z,3.60
2019-03-26T00:54:58.452Z,3.67
2019-03-26T00:57:30.310Z,3.37
2019-03-26T01:00:02.003Z,3.20
2019-03-26T01:02:33.936Z,3.77
2019-03-26T01:05:05.706Z,3.43
2019-03-26T01:07:37.760Z,3.03
2019-03-26T01:10:13.516Z,3.20
2019-03-26T01:12:45.478Z,3.23
2019-03-26T01:15:17.160Z,3.40
2019-03-26T01:17:49.093Z,3.30
2019-03-26T01:20:20.689Z,3.50
2019-03-26T01:22:52.516Z,4.10
2019-03-26T01:25:24.382Z,3.70
2019-03-26T01:27:56.192Z,3.30
2019-03-26T01:30:27.825Z,3.77
2019-03-26T01:32:59.650Z,3.37
2019-03-26T01:35:31.334Z,3.70
2019-03-26T01:38:03.177Z,3.00
2019-03-26T01:40:34.816Z,3.70
2019-03-26T01:43:06.712Z,3.63
2019-03-26T01:45:38.347Z,3.37
2019-03-26T01:48:10.323Z,3.50
2019-03-26T01:50:42.008Z,3.40
2019-03-26T01:53:13.930Z,3.20
2019-03-26T01:55:45.560Z,3.20
2019-03-26T01:58:17.369Z,3.73
2019-03-26T02:00:49.062Z,3.60
2019-03-26T02:03:20.910Z,3.77
2019-03-26T02:05:52.587Z,3.90
2019-03-26T02:08:24.372Z,3.70
2019-03-26T02:10:56.060Z,3.40
2019-03-26T02:13:28.862Z,3.80
2019-03-26T02:16:00.966Z,3.73
2019-03-26T02:18:32.882Z,3.70
2019-03-26T02:21:06.144Z,2.83
2019-03-26T02:23:37.938Z,3.17
2019-03-26T02:26:09.674Z,3.00
2019-03-26T02:28:41.743Z,3.40
2019-03-26T02:31:13.409Z,3.17
2019-03-26T02:33:45.251Z,3.23
2019-03-26T02:36:16.927Z,3.53
2019-03-26T02:38:49.182Z,3.87
2019-03-26T02:41:20.862Z,3.50
2019-03-26T02:43:52.816Z,3.40
2019-03-26T02:46:24.537Z,2.90
2019-03-26T02:48:56.313Z,3.10
2019-03-26T02:51:28.050Z,3.37
2019-03-26T02:53:59.744Z,3.27
2019-03-26T02:56:31.419Z,4.10
2019-03-26T02:59:03.202Z,3.90
2019-03-26T03:01:34.937Z,3.13
2019-03-26T03:04:06.689Z,3.50
2019-03-26T03:06:38.365Z,3.60
2019-03-26T03:09:10.203Z,4.03
2019-03-26T03:11:41.893Z,3.50
2019-03-26T03:14:13.915Z,3.80
2019-03-26T03:16:45.521Z,3.90
2019-03-26T03:19:17.249Z,3.63
2019-03-26T03:21:48.895Z,3.90
2019-03-26T03:24:20.856Z,4.03
2019-03-26T03:26:52.525Z,3.77
2019-03-26T03:29:25.697Z,4.57
2019-03-26T03:31:57.433Z,4.67
2019-03-26T03:34:29.317Z,4.90
2019-03-26T03:37:01.103Z,4.80
2019-03-26T03:39:33.350Z,5.10
2019-03-26T03:42:07.808Z,4.63
2019-03-26T03:44:39.735Z,4.63
2019-03-26T03:47:14.142Z,4.97
2019-03-26T03:49:46.340Z,5.00
2019-03-26T03:52:21.050Z,3.47
2019-03-26T03:54:54.376Z,4.67
2019-03-26T03:57:29.079Z,4.10
2019-03-26T04:00:02.183Z,4.30
2019-03-26T04:02:34.985Z,4.13
2019-03-26T04:05:07.129Z,4.00
2019-03-26T04:07:38.737Z,4.57
2019-03-26T04:10:10.746Z,4.53
2019-03-26T04:12:42.323Z,4.80
2019-03-26T04:15:14.369Z,4.47
2019-03-26T04:17:45.960Z,5.00
2019-03-26T04:20:17.794Z,5.10
2019-03-26T04:22:49.399Z,4.27
2019-03-26T04:25:21.401Z,4.67
2019-03-26T04:27:53.017Z,4.30
2019-03-26T04:30:32.605Z,5.80
2019-03-26T04:33:04.213Z,4.50
2019-03-26T04:35:36.221Z,4.43
2019-03-26T04:38:07.897Z,4.70
2019-03-26T04:40:39.950Z,5.10
2019-03-26T04:43:11.569Z,4.17
2019-03-26T04:45:43.458Z,5.37
2019-03-26T04:48:15.071Z,5.00
2019-03-26T04:50:46.972Z,5.00
2019-03-26T04:53:18.600Z,5.10
2019-03-26T04:55:50.503Z,5.57
2019-03-26T04:58:22.101Z,4.90
2019-03-26T05:00:53.916Z,5.57
2019-03-26T05:03:25.501Z,5.37
2019-03-26T05:05:57.336Z,5.53
2019-03-26T05:08:28.947Z,5.10
2019-03-26T05:11:00.764Z,5.70
2019-03-26T05:13:32.415Z,6.00
2019-03-26T05:16:04.260Z,5.70
2019-03-26T05:18:35.880Z,6.03
2019-03-26T05:21:07.794Z,5.50
2019-03-26T05:23:39.456Z,5.80
2019-03-26T05:26:11.611Z,6.00
2019-03-26T05:28:43.314Z,5.87
2019-03-26T05:31:17.300Z,5.40
2019-03-26T05:33:48.943Z,5.93
2019-03-26T05:36:21.102Z,6.40
2019-03-26T05:38:52.758Z,5.73
2019-03-26T05:41:24.720Z,6.23
2019-03-26T05:43:56.342Z,6.40
2019-03-26T05:46:28.243Z,7.10
2019-03-26T05:48:59.836Z,6.43
2019-03-26T05:51:31.759Z,5.83
2019-03-26T05:54:03.500Z,5.80
2019-03-26T05:56:36.296Z,6.30
2019-03-26T05:59:18.913Z,6.50
2019-03-26T06:01:50.777Z,7.50
2019-03-26T06:04:22.441Z,6.70
2019-03-26T06:07:04.327Z,7.23
2019-03-26T06:09:28.108Z,6.60
2019-03-26T06:11:59.928Z,7.47
2019-03-26T06:14:31.688Z,7.03
2019-03-26T06:17:04.509Z,7.43
2019-03-26T06:19:36.191Z,7.20
2019-03-26T06:22:08.139Z,6.23
2019-03-26T06:24:40.324Z,6.70
2019-03-26T06:27:12.340Z,6.10
2019-03-26T06:29:43.986Z,7.27
2019-03-26T06:32:15.902Z,8.20
2019-03-26T06:34:47.662Z,6.83
2019-03-26T06:37:19.988Z,7.03
2019-03-26T06:39:51.654Z,7.20
2019-03-26T06:42:24.058Z,7.20
2019-03-26T06:44:55.760Z,7.57
2019-03-26T06:47:28.068Z,6.47
2019-03-26T06:50:00.137Z,6.83
2019-03-26T06:52:33.136Z,7.07
2019-03-26T06:55:05.056Z,7.70
2019-03-26T06:57:37.040Z,7.53
2019-03-26T07:00:10.248Z,7.00
2019-03-26T07:02:42.426Z,6.50
2019-03-26T07:05:14.233Z,7.20
2019-03-26T07:07:46.042Z,7.60
2019-03-26T07:10:20.790Z,7.40
2019-03-26T07:12:53.044Z,7.40
2019-03-26T07:15:24.869Z,7.77
2019-03-26T07:17:56.936Z,6.50
2019-03-26T07:20:28.657Z,7.57
2019-03-26T07:23:00.504Z,7.83
2019-03-26T07:25:32.138Z,7.43
2019-03-26T07:28:04.208Z,7.73
2019-03-26T07:30:43.834Z,6.90
2019-03-26T07:33:15.594Z,7.97
2019-03-26T07:35:47.232Z,7.20
2019-03-26T07:38:19.242Z,7.47
2019-03-26T07:40:51.052Z,7.17
2019-03-26T07:43:23.190Z,7.30
2019-03-26T07:45:54.880Z,7.53
2019-03-26T07:48:26.797Z,7.03
2019-03-26T07:51:10.780Z,7.33
2019-03-26T07:53:42.896Z,8.40
2019-03-26T07:56:15.832Z,8.00
2019-03-26T07:58:47.853Z,7.63
2019-03-26T08:01:19.652Z,7.97
2019-03-26T08:03:52.738Z,7.60
2019-03-26T08:06:24.432Z,8.33
2019-03-26T08:08:56.213Z,7.37
2019-03-26T08:11:27.950Z,7.33
2019-03-26T08:13:59.952Z,6.73
2019-03-26T08:16:31.587Z,6.67
2019-03-26T08:19:04.352Z,7.30
2019-03-26T08:21:37.352Z,7.33
2019-03-26T08:24:09.336Z,6.47
2019-03-26T08:26:41.119Z,6.53
2019-03-26T08:29:13.442Z,6.43
2019-03-26T08:31:45.040Z,5.93
2019-03-26T08:34:17.345Z,7.10
2019-03-26T08:36:48.927Z,6.33
2019-03-26T08:39:20.934Z,6.60
2019-03-26T08:41:52.677Z,7.83
2019-03-26T08:44:24.636Z,6.70
2019-03-26T08:46:56.344Z,7.13
2019-03-26T08:49:30.900Z,6.77
2019-03-26T08:52:02.152Z,6.70
2019-03-26T08:54:33.999Z,6.37
2019-03-26T08:57:05.580Z,6.10
2019-03-26T08:59:37.747Z,5.83
2019-03-26T09:02:09.686Z,6.00
2019-03-26T09:04:42.697Z,6.00
2019-03-26T09:07:14.490Z,5.73
2019-03-26T09:09:46.224Z,6.37
2019-03-26T09:12:17.881Z,6.13
2019-03-26T09:14:49.837Z,5.97
2019-03-26T09:17:21.559Z,5.10
2019-03-26T09:19:53.470Z,5.60
2019-03-26T09:22:25.760Z,5.40
2019-03-26T09:24:57.696Z,6.07
2019-03-26T09:27:29.492Z,5.40
2019-03-26T09:30:01.747Z,5.53
2019-03-26T09:32:33.919Z,6.00
2019-03-26T09:35:06.765Z,5.50
2019-03-26T09:37:38.637Z,6.07
2019-03-26T09:40:11.553Z,5.47
2019-03-26T09:42:43.391Z,5.13
2019-03-26T09:45:16.181Z,5.27
2019-03-26T09:47:47.953Z,4.40
2019-03-26T09:50:32.383Z,4.73
2019-03-26T09:53:05.258Z,4.63
2019-03-26T09:55:38.770Z,4.40
2019-03-26T09:58:10.495Z,3.63
2019-03-26T10:00:42.814Z,4.70
2019-03-26T10:03:15.102Z,4.30
2019-03-26T10:05:47.378Z,4.50
2019-03-26T10:08:19.050Z,4.40
2019-03-26T10:10:51.501Z,3.70
2019-03-26T10:13:23.696Z,4.90
2019-03-26T10:15:55.637Z,4.90
2019-03-26T10:18:27.759Z,4.70
2019-03-26T10:20:59.661Z,5.10
2019-03-26T10:23:31.355Z,5.60
2019-03-26T10:26:03.155Z,4.87
2019-03-26T10:28:34.871Z,5.20
2019-03-26T10:31:06.903Z,5.70
2019-03-26T10:33:42.343Z,4.87
2019-03-26T10:36:14.613Z,4.43
2019-03-26T10:38:46.439Z,4.40
2019-03-26T10:41:19.361Z,4.47
2019-03-26T10:43:50.940Z,4.77
2019-03-26T10:46:23.063Z,5.07
2019-03-26T10:48:56.219Z,4.87
2019-03-26T10:51:28.349Z,4.47
2019-03-26T10:54:00.140Z,4.50
2019-03-26T10:56:32.749Z,4.67
2019-03-26T10:59:04.881Z,4.40
2019-03-26T11:01:36.825Z,5.00
2019-03-26T11:04:08.621Z,4.40
2019-03-26T11:06:40.845Z,4.83
2019-03-26T11:09:23.129Z,4.70
2019-03-26T11:11:46.089Z,4.70
2019-03-26T11:14:18.076Z,4.50
2019-03-26T11:16:50.017Z,4.27
2019-03-26T11:19:21.724Z,4.60
2019-03-26T11:21:53.535Z,4.80
2019-03-26T11:24:25.154Z,4.50
2019-03-26T11:26:57.159Z,4.40
2019-03-26T11:29:29.111Z,4.97
2019-03-26T11:32:00.979Z,5.00
2019-03-26T11:34:32.698Z,5.00
2019-03-26T11:37:04.605Z,4.80
2019-03-26T11:39:36.252Z,5.10
2019-03-26T11:42:08.217Z,4.80
2019-03-26T11:44:39.857Z,4.53
2019-03-26T11:47:11.970Z,4.67
2019-03-26T11:49:43.747Z,4.83
2019-03-26T11:52:15.565Z,4.40
2019-03-26T11:54:47.167Z,4.63
2019-03-26T11:57:19.082Z,5.40
2019-03-26T11:59:50.754Z,5.57
2019-03-26T12:02:22.688Z,5.53
2019-03-26T12:04:54.405Z,5.60
2019-03-26T12:07:26.245Z,5.70
2019-03-26T12:09:57.909Z,4.77
2019-03-26T12:12:29.971Z,5.60
2019-03-26T12:15:02.107Z,5.47
2019-03-26T12:17:33.995Z,5.20
2019-03-26T12:20:07.106Z,5.17
2019-03-26T12:22:39.325Z,5.70
2019-03-26T12:25:11.835Z,5.17
2019-03-26T12:27:43.683Z,5.30
2019-03-26T12:30:18.288Z,5.33
2019-03-26T12:32:50.266Z,5.00
2019-03-26T12:35:29.425Z,5.40
2019-03-26T12:38:02.698Z,4.63
2019-03-26T12:40:34.471Z,5.30
2019-03-26T12:43:06.549Z,5.20
2019-03-26T12:45:39.343Z,4.90
2019-03-26T12:48:11.143Z,4.33
2019-03-26T12:50:42.853Z,4.63
2019-03-26T12:53:15.407Z,5.10
2019-03-26T12:55:46.994Z,4.67
2019-03-26T12:58:31.121Z,4.23
2019-03-26T13:00:52.340Z,4.30
2019-03-26T13:03:24.489Z,4.67
2019-03-26T13:05:56.130Z,4.33
2019-03-26T13:08:27.907Z,4.17
2019-03-26T13:10:59.558Z,4.30
2019-03-26T13:13:31.419Z,4.10
2019-03-26T13:16:03.174Z,4.33
2019-03-26T13:18:35.040Z,4.23
2019-03-26T13:21:06.655Z,4.03
2019-03-26T13:23:38.799Z,4.37
2019-03-26T13:26:10.552Z,4.10
2019-03-26T13:28:42.696Z,3.83
2019-03-26T13:31:15.670Z,4.00
2019-03-26T13:33:48.890Z,3.43
2019-03-26T13:36:20.516Z,3.93
2019-03-26T13:38:52.501Z,3.83
2019-03-26T13:41:24.108Z,4.00
2019-03-26T13:43:55.945Z,4.00
2019-03-26T13:46:27.536Z,3.63
2019-03-26T13:48:59.542Z,4.20
2019-03-26T13:51:31.263Z,3.80
2019-03-26T13:54:03.470Z,3.70
2019-03-26T13:56:35.059Z,4.23
2019-03-26T13:59:06.777Z,4.60
2019-03-26T14:01:38.432Z,4.20
2019-03-26T14:04:10.313Z,3.63
2019-03-26T14:06:41.937Z,3.93
2019-03-26T14:09:13.827Z,4.27
2019-03-26T14:11:45.443Z,3.80
2019-03-26T14:14:17.468Z,3.73
2019-03-26T14:16:49.597Z,3.97
2019-03-26T14:19:21.478Z,4.00
2019-03-26T14:21:53.213Z,4.00
2019-03-26T14:24:24.993Z,3.90
2019-03-26T14:26:56.584Z,4.60
2019-03-26T14:29:28.497Z,4.43
2019-03-26T14:32:00.142Z,4.60
2019-03-26T14:34:32.031Z,4.30
2019-03-26T14:37:03.638Z,4.17
2019-03-26T14:39:35.551Z,4.33
2019-03-26T14:42:07.554Z,4.53
2019-03-26T14:44:39.374Z,4.37
2019-03-26T14:47:10.979Z,4.50
2019-03-26T14:49:43.199Z,4.13
2019-03-26T14:52:14.885Z,4.33
2019-03-26T14:54:46.733Z,4.60
2019-03-26T14:57:18.315Z,3.80
2019-03-26T14:59:50.657Z,4.10
2019-03-26T15:02:41.016Z,5.10
2019-03-26T15:05:13.318Z,4.67
2019-03-26T15:07:45.198Z,4.07
2019-03-26T15:10:17.540Z,4.53
2019-03-26T15:12:49.178Z,3.83
2019-03-26T15:15:21.066Z,4.40
2019-03-26T15:17:52.833Z,4.17
2019-03-26T15:20:25.094Z,4.20
2019-03-26T15:22:58.221Z,4.13
2019-03-26T15:25:30.553Z,4.80
2019-03-26T15:28:02.233Z,4.53
2019-03-26T15:30:34.169Z,4.73
2019-03-26T15:33:06.887Z,4.17
2019-03-26T15:35:38.814Z,5.50
2019-03-26T15:38:10.439Z,6.07
2019-03-26T15:40:42.350Z,4.93
2019-03-26T15:43:14.385Z,4.20
2019-03-26T15:45:46.470Z,4.20
2019-03-26T15:48:18.125Z,4.20
2019-03-26T15:50:50.087Z,3.87
2019-03-26T15:53:21.799Z,3.90
2019-03-26T15:55:54.027Z,4.47
2019-03-26T15:58:25.764Z,4.00
2019-03-26T16:00:58.072Z,3.80
2019-03-26T16:03:29.722Z,4.30
2019-03-26T16:06:01.482Z,4.03
2019-03-26T16:08:35.879Z,4.03
2019-03-26T16:11:08.096Z,5.10
2019-03-26T16:13:39.959Z,4.40
2019-03-26T16:16:12.084Z,4.37
2019-03-26T16:18:44.015Z,3.83
2019-03-26T16:21:15.905Z,4.47
2019-03-26T16:23:47.551Z,4.37
2019-03-26T16:26:20.739Z,3.90
2019-03-26T16:28:52.742Z,4.47
2019-03-26T16:31:24.922Z,4.20
2019-03-26T16:33:56.669Z,4.50
2019-03-26T16:36:28.649Z,4.17
2019-03-26T16:39:00.374Z,4.30
2019-03-26T16:41:33.047Z,3.87
2019-03-26T16:44:04.849Z,4.60
2019-03-26T16:46:36.698Z,4.13
2019-03-26T16:49:08.312Z,4.53
2019-03-26T16:51:40.200Z,4.20
2019-03-26T16:54:11.993Z,4.10
2019-03-26T16:56:43.917Z,4.60
2019-03-26T16:59:15.597Z,4.10
2019-03-26T17:01:47.555Z,4.50
2019-03-26T17:04:19.730Z,4.60
2019-03-26T17:06:52.011Z,4.27
2019-03-26T17:09:23.716Z,4.00
2019-03-26T17:12:02.970Z,4.30
2019-03-26T17:14:29.215Z,4.03
2019-03-26T17:17:01.318Z,3.70
2019-03-26T17:19:33.097Z,3.60
2019-03-26T17:22:05.299Z,4.27
2019-03-26T17:24:37.296Z,4.80
2019-03-26T17:27:19.356Z,4.93
2019-03-26T17:29:51.137Z,3.57
2019-03-26T17:32:23.200Z,3.93
2019-03-26T17:34:54.815Z,3.53
2019-03-26T17:37:26.808Z,3.23
2019-03-26T17:39:59.030Z,3.67
2019-03-26T17:42:31.056Z,3.40
2019-03-26T17:45:02.889Z,3.53
2019-03-26T17:47:34.788Z,3.47
2019-03-26T17:50:06.915Z,3.70
2019-03-26T17:52:39.830Z,3.40
2019-03-26T17:55:12.064Z,3.27
2019-03-26T17:57:44.053Z,3.07
2019-03-26T18:00:17.976Z,3.50
2019-03-26T18:02:50.096Z,3.57
2019-03-26T18:05:29.088Z,3.30
2019-03-26T18:08:01.328Z,6.10
2019-03-26T18:10:33.052Z,8.07
2019-03-26T18:13:05.052Z,6.20
2019-03-26T18:15:36.698Z,3.83
2019-03-26T18:18:08.672Z,4.80
2019-03-26T18:20:40.623Z,4.90
2019-03-26T18:23:12.445Z,4.97
2019-03-26T18:25:55.316Z,4.60
2019-03-26T18:28:27.336Z,3.63
2019-03-26T18:30:59.001Z,3.60
2019-03-26T18:33:30.917Z,3.37
2019-03-26T18:36:02.547Z,3.40
2019-03-26T18:38:34.627Z,3.13
2019-03-26T18:41:06.279Z,3.50
2019-03-26T18:43:38.143Z,3.53
2019-03-26T18:46:09.835Z,3.40
2019-03-26T18:48:41.751Z,3.30
2019-03-26T18:51:13.489Z,3.70
2019-03-26T18:54:04.238Z,3.73
2019-03-26T18:56:36.038Z,3.50
2019-03-26T18:59:08.028Z,3.50
2019-03-26T19:01:39.744Z,3.43
2019-03-26T19:04:11.668Z,3.30
2019-03-26T19:06:54.766Z,3.40
2019-03-26T19:09:26.676Z,4.30
2019-03-26T19:11:58.319Z,3.83
2019-03-26T19:14:30.181Z,3.70
2019-03-26T19:17:01.796Z,3.90
2019-03-26T19:19:34.873Z,3.60
2019-03-26T19:22:06.634Z,3.37
2019-03-26T19:24:38.466Z,4.27
2019-03-26T19:27:10.162Z,4.50
2019-03-26T19:29:41.972Z,3.60
2019-03-26T19:32:13.732Z,3.60
2019-03-26T19:34:45.584Z,3.70
2019-03-26T19:37:17.236Z,3.10
2019-03-26T19:39:49.025Z,4.07
2019-03-26T19:42:20.676Z,3.77
2019-03-26T19:44:52.655Z,3.93
2019-03-26T19:47:24.706Z,4.00
2019-03-26T19:50:01.997Z,3.10
2019-03-26T19:52:33.782Z,3.50
2019-03-26T19:55:06.233Z,3.70
2019-03-26T19:57:37.960Z,3.63
2019-03-26T20:00:11.802Z,4.00
2019-03-26T20:02:43.501Z,3.20
2019-03-26T20:05:15.506Z,3.97
2019-03-26T20:07:47.358Z,3.70
2019-03-26T20:10:19.378Z,3.70
2019-03-26T20:12:51.220Z,4.37
2019-03-26T20:15:23.256Z,4.40
2019-03-26T20:17:55.028Z,4.17
2019-03-26T20:20:27.208Z,3.67
2019-03-26T20:22:58.977Z,4.23
2019-03-26T20:25:30.904Z,4.70
2019-03-26T20:28:02.702Z,5.50
2019-03-26T20:30:34.774Z,4.07
2019-03-26T20:33:06.502Z,5.37
2019-03-26T20:35:38.680Z,5.37
2019-03-26T20:38:10.453Z,5.37
2019-03-26T20:40:42.488Z,5.40
2019-03-26T20:43:14.255Z,5.77
2019-03-26T20:45:46.211Z,5.60
2019-03-26T20:48:17.865Z,5.87
2019-03-26T20:50:49.826Z,5.07
2019-03-26T20:53:21.674Z,5.23
2019-03-26T20:55:54.796Z,4.67
2019-03-26T20:58:26.884Z,4.73
2019-03-26T21:00:58.684Z,5.10
2019-03-26T21:03:31.596Z,5.37
2019-03-26T21:06:03.492Z,5.30
2019-03-26T21:08:35.200Z,4.67
2019-03-26T21:11:07.188Z,5.97
2019-03-26T21:13:50.199Z,5.20
2019-03-26T21:16:12.669Z,6.03
2019-03-26T21:18:44.342Z,4.93
2019-03-26T21:21:16.292Z,5.37
2019-03-26T21:23:47.979Z,5.23
2019-03-26T21:26:19.984Z,5.07
2019-03-26T21:28:51.767Z,5.13
2019-03-26T21:31:23.501Z,4.67
2019-03-26T21:33:55.872Z,5.20
2019-03-26T21:36:27.612Z,4.73
2019-03-26T21:38:59.318Z,5.60
2019-03-26T21:41:31.165Z,5.83
2019-03-26T21:44:04.514Z,5.83
2019-03-26T21:46:36.372Z,6.20
2019-03-26T21:49:08.016Z,6.30
2019-03-26T21:51:39.948Z,6.37
2019-03-26T21:54:11.622Z,6.23
2019-03-26T21:56:43.410Z,6.40
2019-03-26T21:59:15.160Z,5.50
2019-03-26T22:01:47.174Z,5.03
2019-03-26T22:04:18.888Z,5.50
2019-03-26T22:06:50.802Z,5.70
2019-03-26T22:09:22.392Z,6.00
2019-03-26T22:11:54.319Z,6.10
2019-03-26T22:14:25.912Z,6.00
2019-03-26T22:16:57.730Z,6.40
2019-03-26T22:19:29.324Z,6.70
2019-03-26T22:22:01.245Z,6.83
2019-03-26T22:24:33.108Z,6.00
2019-03-26T22:27:04.798Z,6.70
2019-03-26T22:29:36.408Z,6.03
2019-03-26T22:32:08.285Z,6.37
2019-03-26T22:34:39.904Z,6.97
2019-03-26T22:37:11.700Z,6.30
2019-03-26T22:39:43.594Z,6.00
2019-03-26T22:42:15.418Z,6.17
2019-03-26T22:44:47.047Z,6.33
2019-03-26T22:47:18.844Z,6.03
2019-03-26T22:49:50.443Z,5.97
2019-03-26T22:52:22.130Z,5.80
2019-03-26T22:54:53.842Z,6.00
2019-03-26T22:57:25.984Z,6.47
2019-03-26T22:59:57.640Z,6.87
2019-03-26T23:02:29.498Z,7.43
2019-03-26T23:05:01.160Z,6.40
2019-03-26T23:07:33.132Z,6.43
2019-03-26T23:10:05.558Z,7.03
2019-03-26T23:12:37.276Z,6.63
2019-03-26T23:15:16.857Z,6.43
2019-03-26T23:17:48.658Z,6.70
2019-03-26T23:20:20.332Z,7.20
2019-03-26T23:22:52.173Z,6.57
2019-03-26T23:25:23.789Z,6.40
2019-03-26T23:27:55.598Z,6.67
2019-03-26T23:30:28.441Z,7.47
2019-03-26T23:33:00.457Z,7.30
2019-03-26T23:35:32.170Z,7.30
2019-03-26T23:38:04.180Z,6.77
2019-03-26T23:40:35.826Z,7.13
2019-03-26T23:43:07.872Z,7.00
2019-03-26T23:45:45.670Z,7.60
2019-03-26T23:48:17.868Z,7.00
2019-03-26T23:50:49.686Z,6.83
2019-03-26T23:53:21.596Z,7.10
2019-03-26T23:55:53.260Z,7.17
2019-03-26T23:58:25.419Z,7.80
